Time;durP1;ratioP1;P1;durP2;ratioP2;P2;SDS_P1;SDS_P2;PMS_P1;PMS_P2;Temp;Humidity;BMP_temperature;BMP_pressure;BME280_temperature;BME280_humidity;BME280_pressure;Samples;Min_cycle;Max_cycle;Signal;HPM_P1;HPM_P2
2021/04/18 00:00:11;;;;;;;7.20;3.03;;;7.60;94.50;;;8.57;79.05;98524.66;5053141;28;20476;-84
2021/04/18 00:02:39;;;;;;;4.30;2.60;;;7.70;94.10;;;8.54;78.63;98509.34;5047502;28;20540;-84
2021/04/18 00:05:10;;;;;;;7.80;3.33;;;7.70;94.20;;;8.55;79.52;98515.38;5050409;28;20476;-84
2021/04/18 00:07:37;;;;;;;5.00;2.80;;;7.70;94.70;;;8.49;80.65;98509.03;5050987;28;20468;-84
2021/04/18 00:10:07;;;;;;;3.53;2.40;;;7.60;94.90;;;8.42;80.20;98505.44;5046424;28;20465;-84
2021/04/18 00:12:35;;;;;;;8.90;2.50;;;7.50;94.50;;;8.42;80.39;98510.66;5044721;28;20580;-84
2021/04/18 00:15:06;;;;;;;7.43;2.80;;;7.50;94.70;;;8.36;81.30;98511.31;5048973;28;20507;-84
2021/04/18 00:17:35;;;;;;;3.60;2.27;;;7.50;94.90;;;8.22;82.44;98504.09;5057811;28;20497;-84
2021/04/18 00:20:06;;;;;;;4.87;2.70;;;7.30;95.60;;;8.17;82.62;98506.34;5058643;28;20480;-84
2021/04/18 00:22:34;;;;;;;4.17;2.80;;;7.20;95.00;;;8.15;83.47;98503.09;5046132;28;20500;-83
2021/04/18 00:25:02;;;;;;;5.00;2.87;;;7.20;95.40;;;8.13;83.33;98499.84;5053054;28;20899;-84
2021/04/18 00:27:29;;;;;;;3.53;2.50;;;7.20;95.40;;;8.11;83.33;98504.41;5050412;28;20460;-84
2021/04/18 00:29:57;;;;;;;5.27;2.83;;;7.10;95.40;;;8.16;83.41;98496.13;5050803;28;20517;-84
2021/04/18 00:32:25;;;;;;;8.23;2.60;;;7.20;95.60;;;8.13;83.82;98493.81;5053997;28;20462;-84
2021/04/18 00:34:54;;;;;;;3.83;2.50;;;7.20;95.50;;;8.13;83.97;98494.63;5057186;28;20465;-84
2021/04/18 00:37:21;;;;;;;6.73;2.53;;;7.20;95.60;;;8.16;83.53;98493.50;5056288;28;20497;-84
2021/04/18 00:39:49;;;;;;;13.13;2.80;;;7.20;95.40;;;8.16;83.32;98488.31;5050560;28;20982;-84
2021/04/18 00:42:17;;;;;;;3.50;2.53;;;7.30;95.20;;;8.12;83.51;98490.41;5046489;28;20771;-84
2021/04/18 00:44:44;;;;;;;5.23;2.70;;;7.20;95.30;;;8.17;83.12;98484.69;5052554;28;20468;-83
2021/04/18 00:47:13;;;;;;;5.20;2.57;;;7.30;95.20;;;8.17;83.09;98477.69;5051837;28;20875;-84
2021/04/18 00:49:41;;;;;;;7.10;3.03;;;7.30;95.30;;;8.21;83.48;98476.41;5049391;28;20584;-84
2021/04/18 00:52:09;;;;;;;3.50;2.63;;;7.30;95.60;;;8.19;84.76;98467.94;5047800;28;20471;-84
2021/04/18 00:54:39;;;;;;;7.93;3.20;;;7.20;95.90;;;8.19;84.03;98467.94;5051256;28;20462;-84
2021/04/18 00:57:08;;;;;;;6.13;2.77;;;7.30;95.70;;;8.25;83.80;98476.91;5050743;28;20545;-83
2021/04/18 00:59:36;;;;;;;4.27;2.53;;;7.40;95.50;;;8.23;84.49;98476.22;5048881;28;20457;-84
2021/04/18 01:02:04;;;;;;;9.50;2.87;;;7.30;96.00;;;8.18;85.18;98471.53;5054886;28;20469;-84
2021/04/18 01:04:31;;;;;;;3.63;2.80;;;7.30;96.10;;;8.15;85.79;98474.47;5048796;28;21223;-84
2021/04/18 01:07:00;;;;;;;12.13;3.20;;;7.20;96.00;;;8.12;86.13;98474.78;5050339;28;20849;-84
2021/04/18 01:09:30;;;;;;;8.20;2.43;;;7.20;96.40;;;8.15;86.06;98477.06;5058676;28;20461;-84
2021/04/18 01:11:58;;;;;;;6.33;1.87;;;7.40;96.10;;;8.13;86.17;98479.00;5051068;28;20464;-84
2021/04/18 01:14:26;;;;;;;9.00;2.80;;;7.30;96.20;;;8.04;86.74;98479.97;5050074;28;20469;-84
2021/04/18 01:16:53;;;;;;;4.50;2.90;;;7.10;96.20;;;8.09;86.47;98475.91;5047864;28;20461;-83
2021/04/18 01:19:21;;;;;;;5.70;2.50;;;7.20;96.40;;;8.05;86.88;98471.19;5047135;28;20572;-84
2021/04/18 01:21:50;;;;;;;5.80;3.00;;;7.20;96.20;;;8.10;86.45;98468.91;5040478;28;20493;-84
2021/04/18 01:24:18;;;;;;;5.13;2.87;;;7.30;96.30;;;8.16;86.14;98481.28;5052775;28;20461;-84
2021/04/18 01:26:46;;;;;;;7.07;2.43;;;7.20;96.40;;;8.15;86.76;98476.25;5054439;28;20476;-84
2021/04/18 01:29:14;;;;;;;4.33;2.40;;;7.20;96.30;;;8.17;85.96;98474.28;5052234;28;20483;-84
2021/04/18 01:31:42;;;;;;;4.90;2.50;;;7.40;95.90;;;8.13;86.23;98465.16;5053303;28;20465;-84
2021/04/18 01:34:13;;;;;;;5.53;2.50;;;7.30;96.20;;;8.17;85.90;98469.88;5047782;28;20465;-84
2021/04/18 01:36:44;;;;;;;4.40;2.40;;;7.40;96.20;;;8.21;85.99;98463.38;5055468;28;20542;-84
2021/04/18 01:39:14;;;;;;;6.63;2.13;;;7.30;96.10;;;8.21;86.06;98459.97;5046541;28;20867;-84
2021/04/18 01:41:43;;;;;;;2.93;2.53;;;7.30;96.10;;;8.19;85.69;98460.09;5053462;28;20476;-84
2021/04/18 01:44:12;;;;;;;6.80;2.97;;;7.30;96.00;;;8.21;85.34;98460.78;5050710;28;20468;-83
2021/04/18 01:46:41;;;;;;;4.70;2.10;;;7.30;95.90;;;8.23;85.20;98463.22;5055488;28;20469;-84
2021/04/18 01:49:09;;;;;;;6.83;2.80;;;7.30;95.70;;;8.21;84.28;98460.78;5046072;28;20527;-84
2021/04/18 01:51:37;;;;;;;5.20;2.87;;;7.40;95.60;;;8.25;84.62;98463.88;5050517;28;20869;-83
2021/04/18 01:54:07;;;;;;;2.77;2.20;;;7.40;95.60;;;8.28;84.13;98471.38;5049082;28;20465;-84
2021/04/18 01:56:35;;;;;;;3.10;2.57;;;7.40;95.60;;;8.30;83.51;98466.81;5047378;28;20950;-84
2021/04/18 01:59:03;;;;;;;4.67;2.70;;;7.50;95.20;;;8.26;83.54;98461.09;5049326;28;20533;-84
2021/04/18 02:01:30;;;;;;;3.57;2.00;;;7.50;95.20;;;8.25;83.46;98459.50;5049559;28;20474;-84
2021/04/18 02:03:58;;;;;;;3.03;2.57;;;7.50;95.30;;;8.25;83.27;98459.50;5044013;28;20460;-84
2021/04/18 02:06:26;;;;;;;8.73;2.40;;;7.40;95.10;;;8.19;83.59;98457.50;5050012;28;20563;-84
2021/04/18 02:08:54;;;;;;;6.10;2.70;;;7.30;95.30;;;8.17;83.35;98456.03;5051308;28;20469;-83
2021/04/18 02:11:22;;;;;;;6.43;2.40;;;7.30;95.60;;;8.13;83.61;98450.34;5056059;28;20460;-84
2021/04/18 02:13:50;;;;;;;6.90;2.90;;;7.30;95.20;;;8.07;83.57;98458.81;5052898;28;20671;-84
2021/04/18 02:16:17;;;;;;;8.93;2.60;;;7.20;95.40;;;8.06;83.36;98459.78;5050340;28;20503;-84
2021/04/18 02:18:45;;;;;;;5.27;2.13;;;7.20;95.40;;;7.95;84.29;98460.06;5042353;28;20558;-84
2021/04/18 02:21:13;;;;;;;7.73;2.97;;;7.00;95.80;;;7.96;84.71;98452.13;5049397;28;21026;-84
2021/04/18 02:23:40;;;;;;;4.90;2.50;;;7.00;95.80;;;7.91;84.76;98458.78;5052011;28;20493;-83
2021/04/18 02:26:08;;;;;;;7.60;2.53;;;6.90;95.80;;;7.93;84.31;98456.84;5046722;28;20476;-84
2021/04/18 02:28:36;;;;;;;4.37;2.77;;;7.00;95.60;;;7.96;84.70;98451.31;5049803;28;20466;-84
2021/04/18 02:31:04;;;;;;;2.70;2.30;;;7.10;95.80;;;7.95;84.28;98452.28;5054520;28;20973;-84
2021/04/18 02:33:43;;;;;;;5.83;2.80;;;7.00;96.00;;;7.92;85.38;98452.59;5047807;28;20479;-83
2021/04/18 02:36:13;;;;;;;6.47;2.83;;;7.00;96.30;;;7.86;86.31;98442.81;5050186;28;20504;-84
2021/04/18 02:38:40;;;;;;;4.83;2.40;;;6.90;96.70;;;7.81;86.50;98450.31;5047768;28;20693;-84
2021/04/18 02:41:08;;;;;;;5.77;2.70;;;6.90;96.40;;;7.78;86.71;98459.22;5051136;28;20499;-84
2021/04/18 02:43:36;;;;;;;5.10;2.30;;;6.80;96.30;;;7.75;87.27;98453.53;5053707;28;20887;-84
2021/04/18 02:46:17;;;;;;;6.33;2.13;;;6.80;96.80;;;7.73;87.14;98463.31;5045516;28;20911;-83
2021/04/18 02:48:47;;;;;;;4.40;2.53;;;6.80;96.50;;;7.73;87.03;98461.50;5047865;28;20475;-84
2021/04/18 02:51:15;;;;;;;6.03;2.80;;;6.80;96.60;;;7.60;88.03;98461.94;5050473;28;21003;-84
2021/04/18 02:53:46;;;;;;;5.63;2.57;;;6.60;96.60;;;7.65;87.52;98458.88;5044227;28;20548;-84
2021/04/18 02:59:17;;;;;;;4.20;2.90;;;6.70;96.60;;;7.70;87.77;98456.63;5052241;28;20500;-84
2021/04/18 03:02:23;;;;;;;7.00;3.13;;;6.90;96.50;;;7.69;87.81;98456.78;5046236;28;21186;-84
2021/04/18 03:05:04;;;;;;;7.23;3.23;;;6.90;96.40;;;7.68;87.64;98458.56;5035228;28;20445;-84
2021/04/18 03:07:32;;;;;;;3.40;2.17;;;6.80;96.50;;;7.71;87.92;98457.41;5047653;28;20495;-84
2021/04/18 03:09:59;;;;;;;6.40;2.57;;;6.80;96.70;;;7.74;87.68;98457.13;5048946;28;20504;-83
2021/04/18 03:12:27;;;;;;;7.87;3.07;;;6.90;96.60;;;7.74;88.53;98455.31;5053323;28;21047;-83
2021/04/18 03:14:54;;;;;;;8.00;2.80;;;6.80;96.80;;;7.74;88.08;98451.94;5049005;28;20464;-84
2021/04/18 03:17:23;;;;;;;5.40;2.63;;;7.00;96.70;;;7.76;88.26;98460.38;5054958;28;20471;-84
2021/04/18 03:19:51;;;;;;;8.00;3.20;;;6.90;96.70;;;7.80;87.51;98457.31;5050412;28;20969;-84
2021/04/18 03:22:18;;;;;;;23.83;2.53;;;7.00;96.40;;;7.70;87.83;98450.59;5054964;28;20492;-84
2021/04/18 03:24:46;;;;;;;6.63;2.57;;;6.90;96.60;;;7.77;87.85;98446.41;5057865;28;20464;-83
2021/04/18 03:27:13;;;;;;;5.10;3.13;;;6.90;96.60;;;7.76;88.06;98449.97;5050534;28;20468;-84
2021/04/18 03:29:41;;;;;;;4.30;3.20;;;6.90;96.80;;;7.79;87.84;98453.06;5050760;28;20480;-84
2021/04/18 03:32:09;;;;;;;6.70;2.60;;;7.00;96.50;;;7.78;87.76;98463.63;5048494;28;20461;-84
2021/04/18 03:34:38;;;;;;;5.30;2.37;;;6.90;96.50;;;7.76;87.83;98466.41;5056940;28;20468;-84
2021/04/18 03:37:06;;;;;;;5.70;2.80;;;6.90;96.70;;;7.82;87.55;98459.72;5052134;28;20539;-84
2021/04/18 03:39:33;;;;;;;5.20;2.50;;;6.90;96.40;;;7.83;87.65;98456.16;5050378;28;20526;-84
2021/04/18 03:42:01;;;;;;;8.20;2.97;;;6.90;96.80;;;7.74;88.37;98463.13;5055645;28;20500;-84
2021/04/18 03:44:28;;;;;;;10.13;3.20;;;6.80;96.70;;;7.75;87.99;98458.75;5055933;28;20468;-84
2021/04/18 03:46:56;;;;;;;5.43;2.80;;;6.80;96.60;;;7.77;87.62;98456.81;5050941;28;20563;-83
2021/04/18 03:49:24;;;;;;;4.60;2.60;;;7.00;96.50;;;7.80;87.70;98459.09;5052596;28;20960;-84
2021/04/18 03:51:52;;;;;;;6.20;2.47;;;6.90;96.60;;;7.82;88.12;98454.53;5050095;28;20463;-84
2021/04/18 03:54:21;;;;;;;5.70;3.17;;;6.90;96.80;;;7.79;88.35;98462.66;5051617;28;20480;-84
2021/04/18 03:56:50;;;;;;;8.23;3.57;;;6.90;97.10;;;7.79;88.93;98458.28;5055992;28;20466;-84
2021/04/18 03:59:18;;;;;;;3.63;2.27;;;7.00;97.50;;;7.81;88.90;98458.13;5054213;28;20530;-84
2021/04/18 04:01:46;;;;;;;11.53;3.10;;;7.00;97.20;;;7.83;88.91;98469.19;5053587;28;20473;-84
2021/04/18 04:04:14;;;;;;;4.77;3.00;;;7.00;96.90;;;7.87;88.68;98457.47;5052665;28;20548;-84
2021/04/18 04:06:42;;;;;;;6.07;3.50;;;7.00;96.90;;;7.88;87.41;98459.13;5052028;28;20465;-84
2021/04/18 04:09:11;;;;;;;3.77;2.53;;;7.10;96.40;;;7.89;86.97;98453.72;5051242;28;21261;-83
2021/04/18 04:11:38;;;;;;;5.50;3.60;;;7.10;96.40;;;7.88;86.99;98459.13;5048545;28;20533;-83
2021/04/18 04:14:06;;;;;;;4.50;2.97;;;7.10;96.20;;;7.90;86.67;98464.97;5049340;28;20472;-83
2021/04/18 04:16:34;;;;;;;8.33;3.40;;;7.10;96.20;;;7.94;86.68;98458.47;5051166;28;20464;-84
2021/04/18 04:19:01;;;;;;;9.63;3.07;;;7.10;96.20;;;7.84;86.71;98465.63;5052264;28;21089;-84
2021/04/18 04:21:29;;;;;;;7.77;3.40;;;7.00;96.20;;;7.85;87.61;98459.41;5054813;28;20559;-84
2021/04/18 04:23:57;;;;;;;6.50;3.07;;;7.00;96.80;;;7.85;86.71;98456.81;5056055;28;20488;-84
2021/04/18 04:26:26;;;;;;;7.93;3.70;;;6.90;96.20;;;7.85;86.83;98456.81;5051276;28;20481;-84
2021/04/18 04:28:53;;;;;;;4.87;3.13;;;7.00;96.70;;;7.83;86.82;98453.56;5046046;28;20558;-84
2021/04/18 04:31:21;;;;;;;7.67;3.10;;;7.00;96.50;;;7.84;86.58;98457.81;5053083;28;20473;-84
2021/04/18 04:33:48;;;;;;;5.47;3.43;;;7.10;96.60;;;7.84;87.46;98460.41;5052895;28;20476;-84
2021/04/18 04:36:16;;;;;;;6.27;3.63;;;7.00;96.80;;;7.82;87.19;98457.13;5056589;28;20517;-84
2021/04/18 04:38:44;;;;;;;13.40;3.77;;;7.00;97.00;;;7.86;87.25;98453.25;5051240;28;20562;-83
2021/04/18 04:41:11;;;;;;;5.90;3.00;;;7.10;96.40;;;7.78;87.29;98454.03;5048088;28;20499;-84
2021/04/18 04:43:40;;;;;;;6.13;3.43;;;7.00;96.20;;;7.79;87.31;98460.06;5048985;28;20973;-84
2021/04/18 04:46:08;;;;;;;6.73;3.37;;;7.00;96.40;;;7.76;88.07;98452.56;5048781;28;20465;-83
2021/04/18 04:48:35;;;;;;;7.77;3.67;;;6.90;96.90;;;7.78;87.98;98454.03;5050621;28;20468;-84
2021/04/18 04:51:03;;;;;;;8.20;3.40;;;6.80;96.70;;;7.70;88.24;98455.81;5050582;28;20479;-84
2021/04/18 04:53:31;;;;;;;8.33;3.70;;;6.80;96.90;;;7.70;88.74;98461.84;5052682;28;20457;-84
2021/04/18 04:56:00;;;;;;;5.70;2.83;;;6.80;97.20;;;7.73;89.41;98460.69;5044907;28;20526;-84
2021/04/18 04:58:27;;;;;;;6.43;3.37;;;6.80;97.30;;;7.76;89.95;98463.81;5054731;28;20507;-84
2021/04/18 05:00:56;;;;;;;7.57;3.70;;;6.80;97.50;;;7.79;90.13;98463.47;5050490;28;21324;-84
2021/04/18 05:03:26;;;;;;;4.40;2.93;;;6.80;97.80;;;7.81;90.78;98469.31;5046379;28;20464;-84
2021/04/18 05:05:55;;;;;;;5.37;3.40;;;6.90;97.90;;;7.78;90.48;98469.66;5049060;28;20472;-84
2021/04/18 05:08:23;;;;;;;5.20;3.33;;;6.80;97.80;;;7.80;90.85;98464.28;5049663;28;20453;-84
2021/04/18 05:10:51;;;;;;;5.77;2.40;;;6.80;97.80;;;7.79;90.81;98467.88;5052130;28;20465;-84
2021/04/18 05:13:18;;;;;;;3.20;2.43;;;6.90;97.70;;;7.83;90.93;98464.78;5048028;28;20462;-84
2021/04/18 05:15:46;;;;;;;4.23;2.70;;;6.90;97.80;;;7.83;90.29;98467.41;5049621;28;20460;-84
2021/04/18 05:18:14;;;;;;;7.47;3.50;;;6.90;97.70;;;7.86;90.34;98471.47;5050297;28;20519;-84
2021/04/18 05:20:42;;;;;;;5.23;3.03;;;7.00;97.70;;;7.84;91.32;98473.41;5051964;28;20460;-83
2021/04/18 05:23:10;;;;;;;5.77;3.30;;;6.90;98.20;;;7.77;91.60;98467.22;5051143;28;20479;-84
2021/04/18 05:25:37;;;;;;;9.43;3.60;;;6.80;98.00;;;7.81;91.67;98473.75;5051489;28;20462;-84
2021/04/18 05:28:05;;;;;;;4.63;3.00;;;6.80;97.80;;;7.81;90.98;98484.16;5056506;28;20984;-84
2021/04/18 05:30:33;;;;;;;4.73;2.90;;;6.80;97.90;;;7.81;91.11;98473.75;5055344;28;20467;-83
2021/04/18 05:33:07;;;;;;;12.57;3.10;;;6.90;97.80;;;7.80;91.06;98482.53;5052974;28;20890;-84
2021/04/18 05:35:36;;;;;;;5.87;3.07;;;6.90;97.60;;;7.72;91.02;98485.09;5049018;28;20468;-84
2021/04/18 05:38:04;;;;;;;8.57;3.17;;;6.70;97.70;;;7.78;91.59;98474.03;5047619;28;20489;-83
2021/04/18 05:40:31;;;;;;;10.50;3.37;;;6.90;98.10;;;7.87;90.84;98486.13;5057330;28;20465;-84
2021/04/18 05:42:59;;;;;;;4.70;2.73;;;6.90;97.80;;;7.89;91.35;98487.59;5053046;28;20568;-84
2021/04/18 05:45:27;;;;;;;6.60;3.13;;;7.00;97.90;;;7.93;91.75;98490.69;5054098;28;20458;-83
2021/04/18 05:47:56;;;;;;;10.73;3.10;;;7.00;98.00;;;7.96;91.26;98485.16;5036327;28;21307;-81
2021/04/18 05:50:24;;;;;;;13.50;3.70;;;7.10;98.10;;;7.99;91.72;98483.03;5044727;28;20464;-81
2021/04/18 05:52:53;;;;;;;7.50;4.17;;;7.10;98.30;;;8.06;90.67;98488.44;5041504;28;20518;-80
2021/04/18 05:55:21;;;;;;;7.97;3.87;;;7.30;97.60;;;8.12;90.09;98480.00;5046923;28;20861;-80
2021/04/18 05:57:48;;;;;;;11.70;6.10;;;7.30;97.10;;;8.15;90.06;98484.88;5043494;28;20461;-81
2021/04/18 06:00:18;;;;;;;9.90;5.17;;;7.30;97.40;;;8.20;89.16;98490.41;5043115;28;20465;-80
2021/04/18 06:02:45;;;;;;;6.90;3.67;;;7.30;96.80;;;8.20;88.14;98482.59;5045946;28;20467;-80
2021/04/18 06:05:14;;;;;;;8.17;4.10;;;7.40;96.80;;;8.26;88.12;98481.16;5045375;28;21059;-81
2021/04/18 06:07:42;;;;;;;10.23;3.73;;;7.40;96.90;;;8.28;88.04;98487.84;5049572;28;20444;-81
2021/04/18 06:10:13;;;;;;;9.23;4.27;;;7.50;97.00;;;8.31;88.19;98477.09;5042173;28;20998;-81
2021/04/18 06:12:41;;;;;;;6.97;3.87;;;7.60;97.10;;;8.33;88.65;98489.97;5049021;28;20460;-81
2021/04/18 06:15:10;;;;;;;5.63;3.13;;;7.50;97.00;;;8.34;88.97;98488.97;5048431;28;20441;-81
2021/04/18 06:17:38;;;;;;;16.70;3.70;;;7.50;97.30;;;8.34;88.61;98492.41;5046872;28;20468;-81
2021/04/18 06:20:08;;;;;;;6.73;4.00;;;7.50;97.10;;;8.38;88.28;98498.09;5048408;28;20469;-79
2021/04/18 06:22:36;;;;;;;6.37;4.60;;;7.60;96.70;;;8.37;87.75;98502.50;5050091;28;20568;-81
2021/04/18 06:25:06;;;;;;;8.27;4.13;;;7.50;96.70;;;8.38;87.53;98498.94;5047282;28;20502;-81
2021/04/18 06:27:34;;;;;;;7.10;3.70;;;7.50;96.70;;;8.43;87.17;98499.28;5043393;28;20957;-80
2021/04/18 06:30:03;;;;;;;9.10;5.30;;;7.50;96.70;;;8.44;86.29;98498.28;5046709;28;20445;-80
2021/04/18 06:32:31;;;;;;;8.93;4.07;;;7.60;96.30;;;8.46;86.38;98500.72;5048432;28;20438;-81
2021/04/18 06:35:02;;;;;;;10.13;4.50;;;7.60;96.40;;;8.47;85.23;98500.56;5049024;28;20533;-80
2021/04/18 06:37:29;;;;;;;6.60;3.90;;;7.70;95.90;;;8.45;86.40;98494.69;5044245;28;20442;-80
2021/04/18 06:39:57;;;;;;;7.00;4.13;;;7.60;97.10;;;8.46;87.43;98501.56;5048730;28;20484;-80
2021/04/18 06:42:28;;;;;;;6.50;4.03;;;7.60;97.40;;;8.47;88.22;98497.94;5054412;28;20480;-80
2021/04/18 06:44:58;;;;;;;7.87;3.83;;;7.60;97.90;;;8.47;90.67;98503.16;5040118;28;20449;-80
2021/04/18 06:47:26;;;;;;;7.83;4.50;;;7.60;98.60;;;8.50;89.94;98494.22;5056094;28;20430;-80
2021/04/18 06:49:55;;;;;;;9.03;5.00;;;7.60;97.50;;;8.48;88.42;98499.59;5048141;28;20482;-80
2021/04/18 06:52:24;;;;;;;11.30;4.93;;;7.70;97.30;;;8.49;88.29;98501.22;5049257;28;20437;-81
2021/04/18 06:54:52;;;;;;;8.57;4.20;;;7.70;97.20;;;8.54;87.55;98498.94;5051045;28;20519;-80
2021/04/18 06:57:19;;;;;;;9.10;4.60;;;7.70;96.90;;;8.51;87.71;98493.22;5050993;28;20485;-81
2021/04/18 06:59:47;;;;;;;7.20;4.17;;;7.70;96.80;;;8.54;87.78;98491.09;5055497;28;20491;-80
2021/04/18 07:02:31;;;;;;;8.70;5.40;;;7.80;97.00;;;8.58;88.40;98489.81;5046502;28;20453;-80
2021/04/18 07:05:01;;;;;;;12.77;5.23;;;7.80;97.30;;;8.64;88.76;98490.97;5056959;28;20460;-81
2021/04/18 07:07:32;;;;;;;13.40;5.00;;;7.90;97.60;;;8.69;89.82;98496.47;5049999;28;20962;-80
2021/04/18 07:10:00;;;;;;;10.73;5.67;;;7.90;98.00;;;8.72;89.38;98495.34;5049559;28;20829;-81
2021/04/18 07:12:31;;;;;;;8.70;5.17;;;7.90;97.40;;;8.65;89.37;98496.97;5053791;28;20459;-80
2021/04/18 07:15:00;;;;;;;8.57;5.67;;;7.90;97.60;;;8.72;90.03;98495.34;5047811;28;20855;-80
2021/04/18 07:17:29;;;;;;;8.00;4.90;;;7.90;98.00;;;8.75;89.34;98506.25;5050791;28;20459;-80
2021/04/18 07:20:12;;;;;;;14.17;6.20;;;7.90;97.10;;;8.80;88.32;98497.94;5051459;28;20547;-80
2021/04/18 07:22:41;;;;;;;11.83;5.77;;;8.00;96.80;;;8.84;87.97;98501.84;5056574;28;20464;-80
2021/04/18 07:25:10;;;;;;;7.43;4.70;;;8.00;97.20;;;8.86;86.95;98502.50;5048827;28;20464;-80
2021/04/18 07:27:50;;;;;;;11.23;5.30;;;8.10;96.60;;;8.94;87.48;98492.06;5050806;28;20449;-81
2021/04/18 07:30:21;;;;;;;10.27;4.93;;;8.20;97.40;;;8.95;85.87;98486.69;5049206;28;20848;-81
2021/04/18 07:33:05;;;;;;;12.80;4.53;;;8.20;96.10;;;8.97;84.00;98489.94;5053258;28;21130;-80
2021/04/18 07:35:38;;;;;;;12.37;5.00;;;8.30;95.70;;;9.01;84.36;98498.25;5054674;28;20498;-80
2021/04/18 07:38:23;;;;;;;9.37;4.53;;;8.30;96.20;;;9.02;85.99;98498.06;5053596;28;20999;-80
2021/04/18 07:40:54;;;;;;;10.50;5.60;;;8.30;96.50;;;9.06;83.98;98504.59;5053755;28;20453;-81
2021/04/18 07:43:23;;;;;;;6.70;4.80;;;8.30;95.60;;;9.11;83.62;98498.88;5043753;28;20434;-81
2021/04/18 07:45:52;;;;;;;10.83;5.57;;;8.30;95.80;;;9.12;82.83;98504.91;5047752;28;20531;-80
2021/04/18 07:48:21;;;;;;;8.63;4.87;;;8.40;95.50;;;9.13;81.76;98504.72;5053437;28;20512;-82
2021/04/18 07:50:50;;;;;;;8.07;4.90;;;8.40;95.40;;;9.14;81.91;98501.16;5050617;28;20468;-81
2021/04/18 07:53:20;;;;;;;11.50;6.00;;;8.30;95.50;;;9.14;81.95;98505.53;5045613;28;20451;-81
2021/04/18 07:55:48;;;;;;;12.00;5.43;;;8.40;95.50;;;9.14;82.24;98505.53;5052600;28;20488;-81
2021/04/18 07:58:16;;;;;;;13.13;5.67;;;8.30;95.60;;;9.18;82.31;98502.44;5044759;28;21097;-81
2021/04/18 08:00:43;;;;;;;6.77;5.20;;;8.40;95.60;;;9.17;82.39;98500.81;5052952;28;20445;-81
2021/04/18 08:03:15;;;;;;;12.90;6.30;;;8.40;95.70;;;9.16;82.57;98499.19;5055032;28;20452;-80
2021/04/18 08:05:46;;;;;;;6.80;5.00;;;8.40;95.90;;;9.17;82.86;98494.78;5051656;28;20495;-81
2021/04/18 08:08:16;;;;;;;16.47;6.23;;;8.50;96.00;;;9.21;83.08;98496.91;5061549;28;20459;-80
2021/04/18 08:10:46;;;;;;;9.90;5.30;;;8.40;95.90;;;9.22;83.14;98498.53;5056161;28;20456;-80
2021/04/18 08:13:16;;;;;;;11.70;5.43;;;8.40;96.00;;;9.24;83.62;98493.13;5056782;28;20453;-81
2021/04/18 08:16:04;;;;;;;13.53;5.83;;;8.50;96.20;;;9.28;83.80;98495.25;5051825;28;20471;-81
2021/04/18 08:18:39;;;;;;;14.17;6.33;;;8.60;96.20;;;9.24;84.47;98499.16;5051244;28;20578;-81
2021/04/18 08:21:31;;;;;;;9.47;4.87;;;8.60;96.30;;;9.30;84.60;98500.31;5048766;28;20470;-81
2021/04/18 08:24:00;;;;;;;10.20;6.23;;;8.60;96.70;;;9.27;85.18;98491.00;5053760;28;20981;-81
2021/04/18 08:26:31;;;;;;;44.40;18.77;;;8.50;96.80;;;9.30;85.79;98495.09;5056380;28;20462;-81
2021/04/18 08:29:13;;;;;;;13.80;7.40;;;8.50;96.80;;;9.29;86.08;98494.28;5043518;28;20485;-81
2021/04/18 08:32:09;;;;;;;10.97;5.47;;;8.40;97.00;;;9.31;85.77;98481.84;5049567;28;21055;-81
2021/04/18 08:34:43;;;;;;;9.80;6.30;;;8.50;96.90;;;9.39;85.30;98494.88;5057574;28;21059;-81
2021/04/18 08:37:19;;;;;;;10.20;5.60;;;8.50;96.70;;;9.40;85.29;98491.31;5048453;28;20458;-81
2021/04/18 08:39:47;;;;;;;12.13;5.60;;;8.50;96.80;;;9.42;85.45;98494.53;5047669;28;20794;-81
2021/04/18 08:42:28;;;;;;;11.30;6.50;;;8.50;96.80;;;9.47;84.87;98497.47;5047625;28;20472;-81
2021/04/18 08:45:00;;;;;;;9.43;5.57;;;8.60;96.80;;;9.54;84.52;98498.41;5046523;28;20461;-81
2021/04/18 08:47:31;;;;;;;11.17;5.90;;;8.60;96.40;;;9.59;84.52;98490.06;5046338;28;20457;-81
2021/04/18 08:50:11;;;;;;;9.33;6.20;;;8.80;96.40;;;9.58;84.30;98489.25;5044943;28;20473;-81
2021/04/18 08:52:39;;;;;;;17.60;6.00;;;8.80;96.30;;;9.61;84.15;98498.56;5046349;28;20950;-81
2021/04/18 08:55:10;;;;;;;13.30;5.70;;;8.80;96.50;;;9.66;83.54;98503.25;5049496;28;20471;-81
2021/04/18 08:57:39;;;;;;;8.10;5.40;;;8.90;96.20;;;9.66;83.73;98500.66;5049983;28;20449;-81
2021/04/18 09:00:11;;;;;;;11.20;5.67;;;8.90;96.30;;;9.58;84.52;98504.91;5048559;28;20994;-81
2021/04/18 09:02:39;;;;;;;13.03;6.20;;;8.80;96.70;;;9.61;84.90;98503.78;5048595;28;20996;-81
2021/04/18 09:05:17;;;;;;;10.37;5.50;;;8.80;96.90;;;9.70;84.85;98501.94;5044979;28;20458;-81
2021/04/18 09:07:46;;;;;;;13.23;5.90;;;8.90;96.60;;;9.76;84.52;98501.25;5051976;28;20519;-80
2021/04/18 09:10:14;;;;;;;11.33;5.50;;;8.90;96.50;;;9.81;84.03;98494.56;5047458;28;21048;-81
2021/04/18 09:12:47;;;;;;;14.13;5.90;;;9.00;96.30;;;9.84;83.85;98494.22;5054636;28;20548;-80
2021/04/18 09:15:15;;;;;;;15.47;6.47;;;9.10;96.30;;;9.86;84.54;98501.84;5046433;28;20698;-80
2021/04/18 09:17:43;;;;;;;9.17;5.43;;;9.10;96.80;;;9.91;84.65;98505.59;5047542;28;20823;-81
2021/04/18 09:20:18;;;;;;;13.37;5.43;;;9.10;96.70;;;9.92;84.03;98507.25;5050100;28;20580;-81
2021/04/18 09:22:47;;;;;;;9.80;5.90;;;9.10;96.30;;;9.92;83.44;98495.97;5048336;28;20474;-81
2021/04/18 09:25:18;;;;;;;13.23;5.70;;;9.10;96.30;;;9.96;83.28;98507.72;5050333;28;20467;-81
2021/04/18 09:27:48;;;;;;;9.70;5.13;;;9.20;96.30;;;9.92;84.80;98511.66;5049755;28;20462;-80
2021/04/18 09:30:17;;;;;;;7.77;5.63;;;9.20;96.70;;;9.92;84.65;98506.41;5049551;28;20463;-81
2021/04/18 09:32:48;;;;;;;8.97;5.90;;;9.20;96.60;;;9.94;84.11;98507.06;5049459;28;20453;-81
2021/04/18 09:35:21;;;;;;;14.30;6.63;;;9.20;96.60;;;9.92;84.90;98506.41;5048695;28;20461;-80
2021/04/18 09:37:55;;;;;;;13.23;5.43;;;9.20;96.70;;;9.92;84.62;98506.41;5049023;28;20452;-81
2021/04/18 09:40:26;;;;;;;10.17;6.47;;;9.30;96.60;;;9.92;85.03;98506.41;5050221;28;20925;-81
2021/04/18 09:42:54;;;;;;;10.23;5.70;;;9.20;96.80;;;9.93;85.03;98503.63;5046677;28;20579;-81
2021/04/18 09:45:28;;;;;;;11.17;6.57;;;9.20;96.60;;;9.93;84.87;98502.81;5045942;28;20492;-87
2021/04/18 09:47:57;;;;;;;13.40;7.50;;;9.20;96.70;;;9.94;84.24;98509.66;5050278;28;20961;-81
2021/04/18 09:50:30;;;;;;;7.80;5.83;;;9.20;96.50;;;9.95;84.31;98509.50;5044831;28;20506;-81
2021/04/18 09:53:14;;;;;;;11.90;6.70;;;9.20;96.80;;;9.95;86.41;98501.66;5049186;28;20468;-81
2021/04/18 09:55:51;;;;;;;14.00;6.50;;;9.10;97.30;;;9.96;85.16;98512.94;5053402;28;20468;-81
2021/04/18 09:58:27;;;;;;;10.53;6.10;;;9.20;96.60;;;9.98;84.87;98503.94;5050621;28;20460;-81
2021/04/18 10:00:58;;;;;;;12.90;6.20;;;9.20;96.60;;;9.98;84.60;98505.72;5047941;28;20465;-81
2021/04/18 10:03:38;;;;;;;11.97;6.00;;;9.20;96.70;;;9.99;85.11;98508.19;5048347;28;20536;-81
2021/04/18 10:06:09;;;;;;;7.07;5.33;;;9.20;96.80;;;10.04;85.90;98510.25;5045733;28;20471;-81
2021/04/18 10:08:39;;;;;;;15.50;7.00;;;9.30;97.20;;;10.06;87.30;98503.06;5052183;28;20464;-81
2021/04/18 10:11:25;;;;;;;84.27;39.60;;;9.30;97.70;;;10.10;86.90;98509.56;5048118;28;20854;-87
2021/04/18 10:13:55;;;;;;;15.27;7.10;;;9.30;97.30;;;10.13;86.84;98506.63;5051709;28;20465;-80
2021/04/18 10:16:38;;;;;;;10.80;6.37;;;9.40;97.30;;;10.20;87.70;98512.00;5045148;28;20457;-80
2021/04/18 10:19:11;;;;;;;9.33;6.37;;;9.40;97.70;;;10.23;87.98;98504.63;5055961;28;20889;-80
2021/04/18 10:21:41;;;;;;;14.70;7.03;;;9.40;97.80;;;10.29;88.38;98514.38;5042183;28;20445;-81
2021/04/18 10:24:35;;;;;;;8.90;6.30;;;9.50;98.00;;;10.25;90.43;98513.09;5055962;28;20452;-81
2021/04/18 10:27:06;;;;;;;14.03;6.70;;;9.50;98.50;;;10.27;90.17;98523.41;5047045;28;21217;-81
2021/04/18 10:29:35;;;;;;;15.17;7.07;;;9.50;98.20;;;10.23;91.36;98515.09;5052950;28;20980;-81
2021/04/18 10:32:04;;;;;;;13.63;6.40;;;9.50;98.90;;;10.26;92.17;98512.13;5054797;28;20451;-80
2021/04/18 10:34:32;;;;;;;13.00;6.50;;;9.50;99.20;;;10.28;93.60;98514.56;5051354;28;20470;-80
2021/04/18 10:37:00;;;;;;;16.47;7.30;;;9.50;99.60;;;10.22;96.43;98515.25;5049057;28;20469;-80
2021/04/18 10:39:28;;;;;;;14.80;7.50;;;9.40;99.90;;;10.22;97.68;98517.88;5054056;28;20487;-80
2021/04/18 10:41:57;;;;;;;13.47;7.67;;;9.50;99.90;;;10.19;99.17;98515.59;5052309;28;20481;-79
2021/04/18 10:44:26;;;;;;;18.90;10.20;;;9.40;99.90;;;10.16;99.71;98514.16;5054660;28;20456;-80